BGF444 LBWN-LBSF

Flight info

Callsign BGF444
Flight time 0h 40m
Altitude 32000
Route DICXA T343 UMPIT
Aircraft A319/M-SDE3FGHIRWY/LB1

Departure

Time 2026-04-29 09:24
Airport Varna Airport (LBWN)

Arrival

Time 2026-04-29 10:05
Airport Sofia Airport (LBSF)
Time Latitude Longitude Altitude Speed Heading
2026-04-29 09:07 43.23593 27.82777 245 ft 0 kts 320°
2026-04-29 09:17 43.23594 27.82776 245 ft 1 kts 320°
2026-04-29 09:17 43.23600 27.82769 245 ft 1 kts 315°
2026-04-29 09:18 43.23602 27.82763 245 ft 1 kts 291°
2026-04-29 09:18 43.23602 27.82758 245 ft 1 kts 258°
2026-04-29 09:18 43.23599 27.82753 245 ft 1 kts 221°
2026-04-29 09:18 43.23579 27.82739 245 ft 6 kts 206°
2026-04-29 09:19 43.23554 27.82689 245 ft 8 kts 280°
2026-04-29 09:19 43.23563 27.82613 245 ft 9 kts 279°
2026-04-29 09:19 43.23572 27.82520 245 ft 11 kts 277°
2026-04-29 09:19 43.23581 27.82414 245 ft 12 kts 276°
2026-04-29 09:20 43.23588 27.82301 245 ft 12 kts 256°
2026-04-29 09:20 43.23521 27.82246 245 ft 12 kts 185°
2026-04-29 09:20 43.23475 27.82165 245 ft 12 kts 269°
2026-04-29 09:20 43.23486 27.82052 245 ft 12 kts 278°
2026-04-29 09:21 43.23498 27.81937 245 ft 13 kts 278°
2026-04-29 09:21 43.23510 27.81813 245 ft 14 kts 276°
2026-04-29 09:21 43.23521 27.81677 245 ft 15 kts 276°
2026-04-29 09:21 43.23533 27.81539 245 ft 15 kts 277°
2026-04-29 09:22 43.23547 27.81390 245 ft 12 kts 278°
2026-04-29 09:22 43.23558 27.81267 245 ft 14 kts 277°
2026-04-29 09:22 43.23572 27.81120 245 ft 17 kts 277°
2026-04-29 09:22 43.23563 27.80973 245 ft 13 kts 232°
2026-04-29 09:23 43.23484 27.80910 245 ft 14 kts 169°
2026-04-29 09:23 43.23392 27.80973 245 ft 16 kts 150°
2026-04-29 09:23 43.23343 27.81017 245 ft 3 kts 163°
2026-04-29 09:23 43.23327 27.81033 245 ft 3 kts 127°
2026-04-29 09:24 43.23325 27.81057 245 ft 3 kts 97°
2026-04-29 09:24 43.23318 27.81135 245 ft 24 kts 97°
2026-04-29 09:24 43.23248 27.81896 246 ft 131 kts 97°
2026-04-29 09:24 43.23145 27.83302 990 ft 150 kts 96°
2026-04-29 09:25 43.23040 27.84771 2021 ft 159 kts 97°
2026-04-29 09:25 43.22887 27.86344 2821 ft 174 kts 99°
2026-04-29 09:25 43.22678 27.88080 3585 ft 194 kts 103°
2026-04-29 09:25 43.22100 27.89827 4397 ft 213 kts 126°
2026-04-29 09:26 43.20944 27.91208 5265 ft 231 kts 150°
2026-04-29 09:26 43.19365 27.91900 6226 ft 247 kts 170°
2026-04-29 09:26 43.17621 27.92007 7211 ft 263 kts 185°
2026-04-29 09:26 43.15845 27.91299 8317 ft 271 kts 210°
2026-04-29 09:27 43.14478 27.89527 9523 ft 276 kts 237°
2026-04-29 09:27 43.13830 27.87045 10656 ft 283 kts 262°
2026-04-29 09:27 43.13672 27.84309 11615 ft 297 kts 268°
2026-04-29 09:27 43.13574 27.81376 12112 ft 317 kts 269°
2026-04-29 09:28 43.13438 27.78329 12361 ft 324 kts 267°
2026-04-29 09:28 43.13220 27.75214 12986 ft 336 kts 265°
2026-04-29 09:28 43.12940 27.72009 13987 ft 340 kts 264°
2026-04-29 09:28 43.12643 27.68791 15058 ft 343 kts 264°
2026-04-29 09:29 43.12352 27.65551 16161 ft 341 kts 265°
2026-04-29 09:29 43.11822 27.59134 18225 ft 343 kts 266°
2026-04-29 09:29 43.11557 27.55853 18988 ft 350 kts 266°
2026-04-29 09:30 43.11283 27.52518 19779 ft 355 kts 265°
2026-04-29 09:30 43.10999 27.49144 20550 ft 360 kts 265°
2026-04-29 09:30 43.10704 27.45721 21303 ft 364 kts 266°
2026-04-29 09:30 43.10403 27.42288 22204 ft 362 kts 266°
2026-04-29 09:31 43.10109 27.38862 23003 ft 364 kts 266°
2026-04-29 09:31 43.09815 27.35401 23631 ft 369 kts 266°
2026-04-29 09:31 43.09514 27.31894 24260 ft 373 kts 266°
2026-04-29 09:31 43.09211 27.28346 24881 ft 377 kts 266°
2026-04-29 09:32 43.08904 27.24765 25473 ft 381 kts 266°
2026-04-29 09:32 43.08591 27.21147 26055 ft 385 kts 266°
2026-04-29 09:32 43.08272 27.17496 26638 ft 388 kts 266°
2026-04-29 09:32 43.07947 27.13810 27209 ft 392 kts 266°
2026-04-29 09:33 43.07619 27.10122 27948 ft 389 kts 266°
2026-04-29 09:33 43.07296 27.06462 28756 ft 385 kts 266°
2026-04-29 09:33 43.06978 27.02846 29597 ft 382 kts 267°
2026-04-29 09:33 43.06659 26.99251 30356 ft 380 kts 266°
2026-04-29 09:34 43.06338 26.95672 31119 ft 378 kts 266°
2026-04-29 09:34 43.06017 26.92107 31826 ft 378 kts 266°
2026-04-29 09:34 43.05696 26.88551 32161 ft 376 kts 267°
2026-04-29 09:34 43.05377 26.84997 32179 ft 377 kts 267°
2026-04-29 09:35 43.04741 26.77938 32180 ft 377 kts 267°
2026-04-29 09:35 43.04091 26.70827 32180 ft 377 kts 267°
2026-04-29 09:36 43.03439 26.63721 32178 ft 377 kts 267°
2026-04-29 09:36 43.02781 26.56606 32177 ft 377 kts 267°
2026-04-29 09:37 43.02117 26.49492 32183 ft 377 kts 267°
2026-04-29 09:37 43.01450 26.42383 32188 ft 377 kts 267°
2026-04-29 09:38 43.00777 26.35269 32175 ft 378 kts 266°
2026-04-29 09:38 43.00099 26.28147 32133 ft 378 kts 266°
2026-04-29 09:39 42.99417 26.21017 32108 ft 378 kts 266°
2026-04-29 09:39 42.98728 26.13892 32106 ft 378 kts 266°
2026-04-29 09:40 42.98037 26.06765 32104 ft 379 kts 266°
2026-04-29 09:40 42.97206 25.99640 32113 ft 381 kts 264°
2026-04-29 09:41 42.96300 25.92521 32137 ft 381 kts 264°
2026-04-29 09:41 42.95418 25.85375 32098 ft 383 kts 264°
2026-04-29 09:42 42.94525 25.78206 32119 ft 383 kts 264°
2026-04-29 09:42 42.93624 25.71047 32142 ft 383 kts 264°
2026-04-29 09:43 42.92720 25.63887 32164 ft 383 kts 264°
2026-04-29 09:43 42.91809 25.56729 32159 ft 383 kts 264°
2026-04-29 09:44 42.90892 25.49554 32133 ft 384 kts 264°
2026-04-29 09:44 42.89977 25.42391 32147 ft 383 kts 264°
2026-04-29 09:45 42.89065 25.35298 31665 ft 373 kts 264°
2026-04-29 09:45 42.88615 25.31828 30878 ft 371 kts 264°
2026-04-29 09:45 42.88163 25.28344 29794 ft 376 kts 264°
2026-04-29 09:46 42.87705 25.24797 28600 ft 383 kts 264°
2026-04-29 09:46 42.87240 25.21209 27739 ft 384 kts 264°
2026-04-29 09:46 42.86772 25.17640 27041 ft 380 kts 264°
2026-04-29 09:46 42.86309 25.14116 26375 ft 376 kts 263°
2026-04-29 09:47 42.85850 25.10623 25732 ft 373 kts 263°
2026-04-29 09:47 42.85400 25.07202 25084 ft 370 kts 263°
2026-04-29 09:47 42.84944 25.03760 24419 ft 368 kts 263°
2026-04-29 09:47 42.84490 25.00336 23759 ft 366 kts 263°
2026-04-29 09:48 42.84039 24.96939 23133 ft 363 kts 263°
2026-04-29 09:48 42.83590 24.93564 22516 ft 361 kts 263°
2026-04-29 09:48 42.83145 24.90216 21903 ft 358 kts 263°
2026-04-29 09:48 42.82703 24.86892 21324 ft 355 kts 263°
2026-04-29 09:49 42.82262 24.83594 20751 ft 353 kts 262°
2026-04-29 09:49 42.81822 24.80314 20176 ft 352 kts 262°
2026-04-29 09:49 42.81380 24.77048 19616 ft 350 kts 262°
2026-04-29 09:49 42.80940 24.73791 19059 ft 349 kts 262°
2026-04-29 09:50 42.80503 24.70551 18509 ft 347 kts 262°
2026-04-29 09:50 42.80068 24.67323 17988 ft 346 kts 262°
2026-04-29 09:50 42.79633 24.64112 17459 ft 344 kts 262°
2026-04-29 09:50 42.79197 24.60911 16921 ft 343 kts 262°
2026-04-29 09:51 42.78763 24.57720 16414 ft 342 kts 262°
2026-04-29 09:51 42.78330 24.54546 15916 ft 340 kts 262°
2026-04-29 09:51 42.77898 24.51390 15420 ft 339 kts 262°
2026-04-29 09:51 42.77466 24.48232 14855 ft 339 kts 261°
2026-04-29 09:52 42.77037 24.45071 14298 ft 340 kts 261°
2026-04-29 09:52 42.76600 24.41908 13757 ft 340 kts 260°
2026-04-29 09:52 42.76162 24.38756 13214 ft 339 kts 261°
2026-04-29 09:52 42.75724 24.35607 12612 ft 339 kts 260°
2026-04-29 09:53 42.75286 24.32464 11997 ft 338 kts 261°
2026-04-29 09:53 42.74852 24.29336 11333 ft 335 kts 260°
2026-04-29 09:53 42.74423 24.26240 10682 ft 331 kts 260°
2026-04-29 09:53 42.74002 24.23217 10348 ft 318 kts 260°
2026-04-29 09:54 42.73601 24.20345 10214 ft 301 kts 260°
2026-04-29 09:54 42.73218 24.17616 10079 ft 287 kts 259°
2026-04-29 09:54 42.72848 24.14982 9777 ft 283 kts 260°
2026-04-29 09:54 42.72480 24.12344 9370 ft 284 kts 260°
2026-04-29 09:55 42.72110 24.09706 8957 ft 285 kts 259°
2026-04-29 09:55 42.71736 24.07064 8543 ft 285 kts 259°
2026-04-29 09:55 42.71365 24.04444 8145 ft 279 kts 259°
2026-04-29 09:55 42.71002 24.01870 7755 ft 276 kts 259°
2026-04-29 09:56 42.70639 23.99309 7340 ft 276 kts 259°
2026-04-29 09:56 42.70279 23.96783 6925 ft 276 kts 259°
2026-04-29 09:56 42.69915 23.94228 6508 ft 275 kts 259°
2026-04-29 09:56 42.69552 23.91678 6120 ft 273 kts 259°
2026-04-29 09:57 42.69200 23.89198 5995 ft 258 kts 259°
2026-04-29 09:57 42.68880 23.86902 5988 ft 237 kts 260°
2026-04-29 09:57 42.68578 23.84755 5984 ft 219 kts 259°
2026-04-29 09:57 42.68291 23.82803 5983 ft 203 kts 259°
2026-04-29 09:58 42.68026 23.80972 5987 ft 193 kts 260°
2026-04-29 09:58 42.67777 23.79190 5992 ft 192 kts 260°
2026-04-29 09:58 42.67533 23.77406 5993 ft 192 kts 262°
2026-04-29 09:58 42.67555 23.75606 6001 ft 191 kts 277°
2026-04-29 09:59 42.67711 23.73835 5908 ft 191 kts 277°
2026-04-29 09:59 42.67836 23.72044 5725 ft 190 kts 275°
2026-04-29 09:59 42.67926 23.70265 5509 ft 188 kts 274°
2026-04-29 09:59 42.68019 23.68502 5278 ft 186 kts 275°
2026-04-29 10:00 42.68132 23.66750 5038 ft 186 kts 276°
2026-04-29 10:00 42.68210 23.65570 4870 ft 186 kts 276°
2026-04-29 10:00 42.68347 23.63258 4546 ft 185 kts 275°
2026-04-29 10:00 42.68415 23.62080 4380 ft 185 kts 275°
2026-04-29 10:01 42.68521 23.60346 4173 ft 181 kts 275°
2026-04-29 10:01 42.68625 23.58649 3905 ft 179 kts 275°
2026-04-29 10:01 42.68725 23.56983 3663 ft 175 kts 275°
2026-04-29 10:01 42.68822 23.55375 3433 ft 165 kts 275°
2026-04-29 10:02 42.68912 23.53881 3216 ft 153 kts 275°
2026-04-29 10:02 42.68997 23.52486 3020 ft 143 kts 276°
2026-04-29 10:02 42.69074 23.51189 2837 ft 133 kts 276°
2026-04-29 10:02 42.69148 23.49986 2673 ft 128 kts 276°
2026-04-29 10:03 42.69220 23.48788 2505 ft 127 kts 276°
2026-04-29 10:03 42.69292 23.47594 2336 ft 127 kts 276°
2026-04-29 10:03 42.69364 23.46403 2164 ft 126 kts 276°
2026-04-29 10:03 42.69434 23.45215 1991 ft 126 kts 277°
2026-04-29 10:04 42.69508 23.44032 1811 ft 126 kts 276°
2026-04-29 10:04 42.69580 23.42908 1757 ft 105 kts 275°
2026-04-29 10:04 42.69629 23.42027 1757 ft 84 kts 273°
2026-04-29 10:04 42.69676 23.41282 1757 ft 76 kts 276°
2026-04-29 10:05 42.69715 23.40611 1757 ft 60 kts 275°
2026-04-29 10:05 42.69750 23.40049 1757 ft 59 kts 274°
2026-04-29 10:05 42.69772 23.39690 1757 ft 15 kts 274°
2026-04-29 10:05 42.69710 23.39597 1757 ft 15 kts 189°
2026-04-29 10:06 42.69598 23.39580 1757 ft 17 kts 186°
2026-04-29 10:06 42.69468 23.39567 1757 ft 20 kts 183°
2026-04-29 10:06 42.69321 23.39554 1757 ft 22 kts 186°
2026-04-29 10:06 42.69202 23.39544 1757 ft 12 kts 161°
2026-04-29 10:07 42.69160 23.39642 1757 ft 13 kts 107°
2026-04-29 10:07 42.69129 23.39677 1757 ft 5 kts 216°
2026-04-29 10:07 42.69101 23.39641 1757 ft 1 kts 252°
2026-04-29 10:07 42.69101 23.39635 1757 ft 1 kts 283°
2026-04-29 10:08 42.69106 23.39615 1757 ft 0 kts 287°